Time;durP1;ratioP1;P1;durP2;ratioP2;P2;SDS_P1;SDS_P2;PMS_P1;PMS_P2;Temp;Humidity;BMP_temperature;BMP_pressure;BME280_temperature;BME280_humidity;BME280_pressure;Samples;Min_cycle;Max_cycle;Signal;HPM_P1;HPM_P2
2022/01/20 00:00:13;;;;;;;8.88;5.07;;;6.90;70.80;;;;;;2392730;53;20929;-67
2022/01/20 00:02:39;;;;;;;6.93;4.47;;;6.90;71.00;;;;;;2372077;53;20973;-68
2022/01/20 00:05:29;;;;;;;8.05;4.60;;;6.80;70.90;;;;;;2371660;53;20986;-68
2022/01/20 00:27:11;;;;;;;8.82;4.40;;;6.50;70.50;;;;;;2368394;53;21030;-68
2022/01/20 00:40:38;;;;;;;7.87;4.28;;;6.40;70.80;;;;;;2372095;54;20961;-69
2022/01/20 00:43:05;;;;;;;7.20;4.10;;;6.30;70.90;;;;;;2371916;54;21060;-68
2022/01/20 00:45:31;;;;;;;8.95;4.95;;;6.30;71.00;;;;;;2372052;53;20993;-66
2022/01/20 00:47:57;;;;;;;8.38;4.75;;;6.20;71.00;;;;;;2364601;53;21016;-68
2022/01/20 00:50:24;;;;;;;7.62;4.70;;;6.20;71.10;;;;;;2359914;53;21072;-66
2022/01/20 00:52:51;;;;;;;12.18;5.28;;;6.20;71.30;;;;;;2365449;53;21009;-67
2022/01/20 00:55:17;;;;;;;7.47;4.18;;;6.20;71.30;;;;;;2384732;53;21050;-67
2022/01/20 00:57:44;;;;;;;7.12;4.15;;;6.20;71.40;;;;;;2589379;52;21390;-68
2022/01/20 01:00:12;;;;;;;7.00;3.90;;;6.20;71.50;;;;;;2448326;53;20910;-66
2022/01/20 01:02:38;;;;;;;9.02;5.43;;;6.20;71.70;;;;;;2371704;54;21017;-66
2022/01/20 01:05:05;;;;;;;7.45;4.03;;;6.20;71.60;;;;;;2625694;52;20982;-66
2022/01/20 01:07:51;;;;;;;7.57;4.70;;;6.10;71.60;;;;;;2372335;54;21013;-66
2022/01/20 01:10:24;;;;;;;6.85;3.83;;;6.10;71.70;;;;;;2371990;53;20930;-68
2022/01/20 01:12:58;;;;;;;8.65;4.70;;;6.20;71.90;;;;;;2372785;53;20941;-69
2022/01/20 01:15:31;;;;;;;6.72;3.90;;;6.20;71.90;;;;;;2385068;52;21065;-65
2022/01/20 01:21:27;;;;;;;6.75;3.95;;;6.20;72.10;;;;;;2372387;53;21530;-67
2022/01/20 01:23:54;;;;;;;8.50;4.70;;;6.20;72.00;;;;;;2372767;54;20990;-70
2022/01/20 01:26:22;;;;;;;7.70;4.30;;;6.10;72.00;;;;;;2405557;52;20982;-69
2022/01/20 01:28:49;;;;;;;8.40;4.53;;;6.10;72.00;;;;;;2392697;52;21879;-67
2022/01/20 01:34:48;;;;;;;8.93;4.87;;;6.10;72.10;;;;;;2564799;52;21472;-69
2022/01/20 01:37:36;;;;;;;7.37;4.37;;;6.10;72.10;;;;;;2457229;52;20954;-67
2022/01/20 01:40:07;;;;;;;6.78;3.97;;;6.10;72.10;;;;;;2479272;52;21010;-68
2022/01/20 01:42:46;;;;;;;7.07;4.07;;;6.10;72.20;;;;;;2352055;54;21100;-68
2022/01/20 01:45:37;;;;;;;7.50;3.50;;;6.10;72.30;;;;;;2463233;52;20950;-70
2022/01/20 01:48:04;;;;;;;8.77;4.20;;;6.10;72.30;;;;;;2372421;54;21387;-68
2022/01/20 01:50:30;;;;;;;8.85;5.15;;;6.10;72.30;;;;;;2371929;53;20894;-69
2022/01/20 01:52:57;;;;;;;7.65;4.28;;;6.10;72.10;;;;;;2372037;54;21512;-68
2022/01/20 01:55:24;;;;;;;7.00;4.30;;;6.10;72.20;;;;;;2371217;53;21517;-67
2022/01/20 01:57:50;;;;;;;8.32;4.68;;;6.10;72.20;;;;;;2372778;53;20933;-70
2022/01/20 02:00:17;;;;;;;9.07;4.80;;;6.10;72.90;;;;;;2371950;53;21434;-68
2022/01/20 02:02:43;;;;;;;7.18;4.40;;;6.00;71.90;;;;;;2371699;54;21017;-69
2022/01/20 02:05:12;;;;;;;7.47;4.10;;;6.00;71.90;;;;;;2364654;53;21639;-66
2022/01/20 02:08:50;;;;;;;8.52;4.32;;;6.00;72.00;;;;;;2341352;54;20946;-68
2022/01/20 02:19:36;;;;;;;8.05;4.22;;;5.90;72.20;;;;;;2368713;53;20953;-67
2022/01/20 02:22:02;;;;;;;9.27;5.12;;;5.80;72.10;;;;;;2365975;53;20973;-69
2022/01/20 02:24:29;;;;;;;7.85;4.35;;;5.90;72.20;;;;;;2358054;53;20938;-70
2022/01/20 02:26:59;;;;;;;8.10;4.28;;;5.90;72.20;;;;;;2604355;52;20973;-66
2022/01/20 02:29:25;;;;;;;8.85;4.30;;;5.90;72.40;;;;;;2374793;53;20913;-69
2022/01/20 02:31:56;;;;;;;9.18;4.93;;;5.80;72.40;;;;;;2372336;54;21391;-70
2022/01/20 02:34:24;;;;;;;9.48;4.22;;;5.80;72.40;;;;;;2371295;53;20938;-70
2022/01/20 02:36:50;;;;;;;7.37;4.10;;;5.80;72.50;;;;;;2372114;54;21414;-67
2022/01/20 02:48:31;;;;;;;8.10;3.62;;;5.80;72.70;;;;;;2503821;52;20913;-68
2022/01/20 02:50:57;;;;;;;7.22;3.85;;;5.80;72.50;;;;;;2372480;54;20989;-67
2022/01/20 02:53:24;;;;;;;6.53;3.58;;;5.80;72.80;;;;;;2477372;52;20929;-70
2022/01/20 02:55:52;;;;;;;5.70;3.17;;;5.80;73.60;;;;;;2372313;54;21013;-68
2022/01/20 02:58:18;;;;;;;8.20;4.35;;;5.80;73.00;;;;;;2623821;52;20996;-71
2022/01/20 03:00:45;;;;;;;6.22;3.75;;;5.80;73.10;;;;;;2372333;53;20966;-67
2022/01/20 03:03:12;;;;;;;6.40;3.62;;;5.80;73.20;;;;;;2372329;54;21475;-69
2022/01/20 03:05:40;;;;;;;6.95;3.70;;;5.80;73.30;;;;;;2378046;52;20989;-68
2022/01/20 03:08:06;;;;;;;6.35;3.50;;;5.80;73.30;;;;;;2355930;53;20933;-67
2022/01/20 03:10:32;;;;;;;5.60;3.20;;;5.80;73.30;;;;;;2348442;53;20982;-68
2022/01/20 03:12:59;;;;;;;6.10;3.67;;;5.80;73.40;;;;;;2372614;53;20914;-67
2022/01/20 03:15:25;;;;;;;5.60;3.50;;;5.90;73.50;;;;;;2471679;52;20945;-67
2022/01/20 03:17:51;;;;;;;6.15;3.30;;;5.90;73.50;;;;;;2372822;54;21002;-67
2022/01/20 03:20:17;;;;;;;5.70;3.10;;;5.90;73.50;;;;;;2372520;53;20988;-66
2022/01/20 03:22:44;;;;;;;7.12;3.83;;;5.90;73.50;;;;;;2435510;52;20981;-70
2022/01/20 03:25:11;;;;;;;7.00;3.90;;;5.90;73.50;;;;;;2372720;53;20934;-68
2022/01/20 03:27:38;;;;;;;7.60;4.65;;;5.90;73.40;;;;;;2370894;54;20953;-70
2022/01/20 03:30:06;;;;;;;6.97;3.97;;;5.90;73.40;;;;;;2372641;53;20938;-69
2022/01/20 03:32:34;;;;;;;7.12;3.92;;;5.90;73.40;;;;;;2372684;54;21935;-68
2022/01/20 03:35:00;;;;;;;6.60;3.72;;;5.90;73.40;;;;;;2376050;54;21467;-69
2022/01/20 03:37:27;;;;;;;7.00;4.07;;;5.90;73.50;;;;;;2372467;54;20937;-69
2022/01/20 03:39:53;;;;;;;8.35;4.22;;;5.90;73.50;;;;;;2372334;54;20942;-67
2022/01/20 03:42:19;;;;;;;7.18;4.40;;;6.00;73.60;;;;;;2366637;52;20984;-69
2022/01/20 03:44:45;;;;;;;9.13;4.97;;;6.00;73.50;;;;;;2374660;53;20940;-66
2022/01/20 03:47:12;;;;;;;8.05;4.87;;;6.00;73.50;;;;;;2408666;52;20998;-68
2022/01/20 03:49:55;;;;;;;8.27;4.95;;;6.00;73.50;;;;;;2372585;54;20985;-68
2022/01/20 03:52:21;;;;;;;7.68;4.45;;;6.00;73.50;;;;;;2372855;53;20938;-66
2022/01/20 03:54:47;;;;;;;9.88;5.97;;;6.00;73.40;;;;;;2355978;53;20999;-67
2022/01/20 03:57:14;;;;;;;9.55;5.43;;;6.00;73.40;;;;;;2369450;53;20938;-68
2022/01/20 03:59:40;;;;;;;9.07;5.25;;;6.00;73.40;;;;;;2372472;53;21635;-67
2022/01/20 04:02:06;;;;;;;8.93;5.18;;;6.00;73.40;;;;;;2372241;54;20934;-68
2022/01/20 04:04:32;;;;;;;8.52;5.03;;;6.00;73.40;;;;;;2358632;53;20928;-67
2022/01/20 04:06:59;;;;;;;8.63;4.85;;;6.00;73.40;;;;;;2352623;53;20996;-68
2022/01/20 04:09:25;;;;;;;8.93;5.28;;;6.00;73.40;;;;;;2364620;53;21488;-69
2022/01/20 04:11:53;;;;;;;9.65;5.37;;;6.00;73.50;;;;;;2372956;53;21447;-70
2022/01/20 04:14:23;;;;;;;7.85;4.87;;;6.00;73.50;;;;;;2372075;53;20950;-65
2022/01/20 04:17:02;;;;;;;10.05;5.25;;;6.00;73.50;;;;;;2375043;52;21711;-70
2022/01/20 04:19:30;;;;;;;9.65;5.53;;;6.00;73.50;;;;;;2373021;52;21084;-68
2022/01/20 04:21:57;;;;;;;11.68;5.75;;;6.00;73.50;;;;;;2372339;53;20974;-68
2022/01/20 04:24:23;;;;;;;10.15;5.18;;;6.00;73.50;;;;;;2372467;53;20966;-66
2022/01/20 04:26:49;;;;;;;8.20;5.40;;;6.00;73.60;;;;;;2372414;54;20922;-67
2022/01/20 04:29:16;;;;;;;8.70;5.10;;;6.00;73.60;;;;;;2396615;52;20933;-66
2022/01/20 04:31:42;;;;;;;8.73;5.00;;;6.00;73.60;;;;;;2372412;53;20946;-66
2022/01/20 04:34:10;;;;;;;9.45;5.22;;;6.00;73.70;;;;;;2372029;54;20945;-66
2022/01/20 04:36:40;;;;;;;9.68;5.25;;;6.00;73.70;;;;;;2372321;54;20938;-69
2022/01/20 04:39:09;;;;;;;9.45;5.18;;;6.00;73.70;;;;;;2625148;52;21433;-69
2022/01/20 04:41:35;;;;;;;7.12;4.50;;;6.10;73.90;;;;;;2351296;53;21033;-68
2022/01/20 04:44:04;;;;;;;8.85;5.32;;;6.10;73.80;;;;;;2372588;53;20901;-66
2022/01/20 04:46:40;;;;;;;9.80;5.68;;;6.10;73.90;;;;;;2372915;53;21155;-68
2022/01/20 04:57:21;;;;;;;9.45;5.62;;;6.10;73.80;;;;;;2447509;52;21060;-68
2022/01/20 04:59:49;;;;;;;9.32;5.70;;;6.20;73.80;;;;;;2356499;53;21021;-68
2022/01/20 05:02:16;;;;;;;8.35;5.22;;;6.10;73.70;;;;;;2372393;53;20942;-69
2022/01/20 05:04:43;;;;;;;9.60;5.37;;;6.10;73.70;;;;;;2372463;54;20929;-69
2022/01/20 05:07:20;;;;;;;8.63;5.47;;;6.10;73.70;;;;;;2622109;52;21313;-69
2022/01/20 05:09:47;;;;;;;10.00;5.70;;;6.20;73.80;;;;;;2372334;53;21482;-69
2022/01/20 05:12:17;;;;;;;8.73;5.30;;;6.10;73.70;;;;;;2372107;54;21016;-67
2022/01/20 05:14:43;;;;;;;7.12;4.70;;;6.10;73.60;;;;;;2372455;54;20918;-67
2022/01/20 05:17:10;;;;;;;8.98;5.00;;;6.10;73.60;;;;;;2546842;52;20993;-68
2022/01/20 05:19:36;;;;;;;9.35;5.30;;;6.10;73.60;;;;;;2404117;52;21005;-67
2022/01/20 05:22:03;;;;;;;8.83;5.97;;;6.20;73.70;;;;;;2310227;53;2762132;-68
2022/01/20 05:24:29;;;;;;;10.00;5.47;;;6.20;73.90;;;;;;2368169;53;21341;-66
2022/01/20 05:26:57;;;;;;;9.40;5.10;;;6.20;73.60;;;;;;2361139;53;20997;-67
2022/01/20 05:29:23;;;;;;;9.50;5.37;;;6.20;73.70;;;;;;2363807;53;20958;-66
2022/01/20 05:31:50;;;;;;;8.35;4.93;;;6.20;73.70;;;;;;2374878;53;20949;-68
2022/01/20 05:34:16;;;;;;;10.05;6.03;;;6.20;73.70;;;;;;2372399;53;20918;-68
2022/01/20 05:36:42;;;;;;;10.27;5.45;;;6.20;73.60;;;;;;2372098;54;21791;-68
2022/01/20 05:39:09;;;;;;;9.05;5.35;;;6.20;73.70;;;;;;2373039;54;21491;-69
2022/01/20 05:41:37;;;;;;;7.97;5.03;;;6.20;73.70;;;;;;2372364;53;20942;-69
2022/01/20 05:44:04;;;;;;;7.68;4.55;;;6.20;73.70;;;;;;2372384;53;20945;-69
2022/01/20 05:46:37;;;;;;;7.25;4.20;;;6.20;73.70;;;;;;2372387;53;21017;-67
2022/01/20 05:49:08;;;;;;;7.35;4.50;;;6.20;73.70;;;;;;2625683;52;21784;-68
2022/01/20 05:51:36;;;;;;;7.97;4.70;;;6.20;73.70;;;;;;2372848;53;20918;-70
2022/01/20 05:54:03;;;;;;;7.68;4.68;;;6.20;73.60;;;;;;2372789;54;21084;-71
2022/01/20 05:56:30;;;;;;;7.72;4.68;;;6.20;73.50;;;;;;2373345;54;21000;-69
2022/01/20 05:58:56;;;;;;;8.43;5.18;;;6.20;73.60;;;;;;2372326;54;20997;-70
2022/01/20 06:01:23;;;;;;;7.62;4.60;;;6.20;73.50;;;;;;2372455;54;22182;-69
2022/01/20 06:03:49;;;;;;;7.53;4.28;;;6.20;73.60;;;;;;2345816;53;21410;-69
2022/01/20 06:06:16;;;;;;;7.25;4.20;;;6.20;73.70;;;;;;2372733;53;21077;-68
2022/01/20 06:08:43;;;;;;;8.07;4.47;;;6.20;73.80;;;;;;2370648;53;20954;-68
2022/01/20 06:11:11;;;;;;;6.93;4.00;;;6.20;73.80;;;;;;2352409;53;20996;-68
2022/01/20 06:13:38;;;;;;;6.40;3.87;;;6.20;73.80;;;;;;2371702;54;20950;-68
2022/01/20 06:16:05;;;;;;;7.53;4.10;;;6.20;73.90;;;;;;2372237;53;20980;-67
2022/01/20 06:18:31;;;;;;;7.68;4.35;;;6.20;73.90;;;;;;2371855;53;20926;-68
2022/01/20 06:20:58;;;;;;;8.70;4.45;;;6.30;74.00;;;;;;2372365;53;20946;-66
2022/01/20 06:23:28;;;;;;;9.30;4.57;;;6.30;74.00;;;;;;2594298;52;20938;-69
2022/01/20 06:25:56;;;;;;;10.32;5.47;;;6.30;74.00;;;;;;2372417;54;21038;-69
2022/01/20 06:28:22;;;;;;;8.13;4.53;;;6.30;74.10;;;;;;2371703;53;20941;-66
2022/01/20 06:30:48;;;;;;;7.12;3.83;;;6.30;74.10;;;;;;2372302;54;20937;-68
2022/01/20 06:33:14;;;;;;;6.90;3.80;;;6.30;74.10;;;;;;2372210;54;21329;-68
2022/01/20 06:35:41;;;;;;;7.87;4.28;;;6.40;74.20;;;;;;2372225;53;21864;-68
2022/01/20 06:38:08;;;;;;;7.93;4.85;;;6.40;74.20;;;;;;2372596;54;21847;-68
2022/01/20 06:40:35;;;;;;;7.43;4.70;;;6.40;74.10;;;;;;2625092;52;21743;-67
2022/01/20 06:43:04;;;;;;;7.30;4.28;;;6.40;74.00;;;;;;2372144;54;20934;-69
2022/01/20 06:45:30;;;;;;;7.50;4.00;;;6.40;74.00;;;;;;2363676;53;20996;-68
2022/01/20 06:47:56;;;;;;;6.95;4.00;;;6.50;74.00;;;;;;2363271;53;20950;-68
2022/01/20 06:50:23;;;;;;;7.15;4.28;;;6.50;73.90;;;;;;2372097;53;20942;-66
2022/01/20 06:52:49;;;;;;;6.30;3.80;;;6.50;73.80;;;;;;2371913;53;20937;-70
2022/01/20 06:55:16;;;;;;;8.35;4.43;;;6.50;73.70;;;;;;2371294;54;21038;-67
2022/01/20 06:57:45;;;;;;;12.05;5.60;;;6.50;73.60;;;;;;2371897;54;21009;-68
2022/01/20 07:00:14;;;;;;;19.58;8.13;;;6.50;73.60;;;;;;2371782;53;20938;-69
2022/01/20 07:02:41;;;;;;;12.07;6.00;;;6.40;73.50;;;;;;2370528;53;20942;-66
2022/01/20 07:05:08;;;;;;;10.98;6.18;;;6.40;73.40;;;;;;2371970;53;20958;-65
2022/01/20 07:07:34;;;;;;;8.80;5.15;;;6.40;73.40;;;;;;2372487;53;21053;-68
2022/01/20 07:10:01;;;;;;;8.20;5.00;;;6.50;73.50;;;;;;2372194;53;20950;-69
2022/01/20 07:12:27;;;;;;;7.80;4.85;;;6.40;73.40;;;;;;2372070;54;21491;-69
2022/01/20 07:14:53;;;;;;;7.25;4.25;;;6.40;73.50;;;;;;2372033;54;20950;-67
2022/01/20 07:17:20;;;;;;;7.07;4.18;;;6.40;73.50;;;;;;2370781;53;20910;-68
2022/01/20 07:19:46;;;;;;;7.50;4.20;;;6.40;73.60;;;;;;2501048;52;20890;-66
2022/01/20 07:22:12;;;;;;;6.37;3.75;;;6.40;73.70;;;;;;2371814;53;21057;-67
2022/01/20 07:24:38;;;;;;;6.68;3.80;;;6.40;73.80;;;;;;2385724;52;20930;-69
2022/01/20 07:27:05;;;;;;;6.70;3.62;;;6.40;73.90;;;;;;2393991;52;21049;-69
2022/01/20 07:29:31;;;;;;;5.87;3.50;;;6.40;73.90;;;;;;2373458;54;20942;-66
2022/01/20 07:31:59;;;;;;;6.20;3.75;;;6.40;74.00;;;;;;2401556;52;22145;-69
2022/01/20 07:34:26;;;;;;;6.47;3.65;;;6.50;74.10;;;;;;2369043;54;21758;-67
2022/01/20 07:36:52;;;;;;;7.62;4.43;;;6.50;74.00;;;;;;2412663;52;21683;-68
2022/01/20 07:39:19;;;;;;;7.28;4.03;;;6.50;74.00;;;;;;2429986;53;20938;-69
2022/01/20 07:41:45;;;;;;;6.12;3.30;;;6.50;74.00;;;;;;2371889;53;20973;-65
2022/01/20 07:44:11;;;;;;;5.93;3.50;;;6.50;73.90;;;;;;2438839;52;20953;-67
2022/01/20 07:46:38;;;;;;;6.45;3.25;;;6.50;74.00;;;;;;2371663;53;20985;-67
2022/01/20 07:49:04;;;;;;;6.47;3.62;;;6.50;74.00;;;;;;2372136;54;20946;-68
2022/01/20 07:51:32;;;;;;;5.30;2.90;;;6.60;74.20;;;;;;2372267;53;20976;-69
2022/01/20 07:53:58;;;;;;;8.77;5.53;;;6.60;74.20;;;;;;2372207;53;21002;-68
2022/01/20 07:56:28;;;;;;;8.30;4.55;;;6.60;74.20;;;;;;2371738;54;20930;-68
2022/01/20 07:58:54;;;;;;;7.07;3.67;;;6.60;74.20;;;;;;2372299;54;20950;-67
2022/01/20 08:01:22;;;;;;;5.62;3.40;;;6.60;74.10;;;;;;2625125;52;20946;-68
2022/01/20 08:03:48;;;;;;;6.25;3.55;;;6.60;74.00;;;;;;2372274;53;21049;-68
2022/01/20 08:06:14;;;;;;;5.97;3.25;;;6.60;74.00;;;;;;2372260;54;20938;-67
2022/01/20 08:08:40;;;;;;;5.72;3.20;;;6.70;74.20;;;;;;2624896;52;21253;-67
2022/01/20 08:11:07;;;;;;;9.43;5.28;;;6.70;74.30;;;;;;2372444;54;20942;-70
2022/01/20 08:13:33;;;;;;;8.65;5.30;;;6.70;74.40;;;;;;2371886;53;20982;-68
2022/01/20 08:15:59;;;;;;;10.32;5.70;;;6.70;74.60;;;;;;2372239;54;20922;-69
2022/01/20 08:18:25;;;;;;;9.90;4.93;;;6.70;74.70;;;;;;2371723;53;21037;-68
2022/01/20 08:20:52;;;;;;;9.43;5.18;;;6.80;74.90;;;;;;2371714;54;20977;-65
2022/01/20 08:23:18;;;;;;;8.18;4.85;;;6.80;75.00;;;;;;2371408;53;20937;-66
2022/01/20 08:25:44;;;;;;;7.85;5.25;;;6.80;75.70;;;;;;2384148;52;20966;-70
2022/01/20 08:28:11;;;;;;;7.95;4.68;;;6.90;75.00;;;;;;2371951;53;21526;-66
2022/01/20 08:30:38;;;;;;;7.35;4.60;;;6.90;75.20;;;;;;2372119;53;21792;-69
2022/01/20 08:33:04;;;;;;;7.22;4.50;;;7.00;74.90;;;;;;2455157;52;21001;-65
2022/01/20 08:35:32;;;;;;;9.65;5.32;;;7.00;74.80;;;;;;2371932;54;20926;-69
2022/01/20 08:37:59;;;;;;;9.50;5.12;;;7.00;74.70;;;;;;2371989;54;20930;-69
2022/01/20 08:40:26;;;;;;;9.13;5.45;;;7.00;74.60;;;;;;2371340;54;21022;-69
2022/01/20 08:42:53;;;;;;;7.70;5.05;;;7.10;74.70;;;;;;2371798;54;20937;-66
2022/01/20 08:45:23;;;;;;;7.32;4.22;;;7.10;74.80;;;;;;2373075;54;20965;-66
2022/01/20 08:47:52;;;;;;;6.85;4.32;;;7.10;75.00;;;;;;2625849;52;21156;-69
2022/01/20 08:50:18;;;;;;;6.87;4.07;;;7.20;75.20;;;;;;2364782;52;21061;-68
2022/01/20 08:52:44;;;;;;;6.87;4.07;;;7.20;75.30;;;;;;2351426;53;21039;-67
2022/01/20 08:55:11;;;;;;;7.68;3.92;;;7.30;75.40;;;;;;2602733;52;20999;-69
2022/01/20 08:57:37;;;;;;;6.45;4.07;;;7.30;75.50;;;;;;2408670;53;20952;-68
2022/01/20 09:00:08;;;;;;;6.40;3.50;;;7.40;75.50;;;;;;2620143;52;21005;-67
2022/01/20 09:02:37;;;;;;;6.45;4.35;;;7.40;75.50;;;;;;2350249;53;20958;-68
2022/01/20 09:05:04;;;;;;;6.53;4.00;;;7.50;75.60;;;;;;2371585;54;20938;-68
2022/01/20 09:07:30;;;;;;;6.75;4.25;;;7.50;75.50;;;;;;2579531;52;20994;-67
2022/01/20 09:09:59;;;;;;;6.05;3.55;;;7.60;75.60;;;;;;2371246;53;20953;-66
2022/01/20 09:15:28;;;;;;;6.32;3.55;;;7.70;75.40;;;;;;2374530;53;20953;-67
2022/01/20 09:17:59;;;;;;;5.68;3.62;;;7.70;75.20;;;;;;2371284;53;21048;-66
2022/01/20 09:20:25;;;;;;;6.60;3.47;;;7.70;75.10;;;;;;2368278;53;20980;-66
2022/01/20 09:22:55;;;;;;;6.35;3.17;;;7.80;75.00;;;;;;2354676;53;20934;-69
2022/01/20 09:25:21;;;;;;;7.37;3.70;;;7.80;75.00;;;;;;2371835;54;21045;-70
2022/01/20 09:27:47;;;;;;;6.32;3.40;;;7.80;75.10;;;;;;2350502;54;20927;-67
2022/01/20 09:30:18;;;;;;;5.55;3.47;;;7.80;75.00;;;;;;2373396;52;20965;-66
2022/01/20 09:33:32;;;;;;;6.62;3.47;;;7.90;74.80;;;;;;2353610;53;20924;-68
2022/01/20 09:35:59;;;;;;;5.32;3.03;;;7.90;74.70;;;;;;2371900;53;20942;-68
2022/01/20 09:38:26;;;;;;;6.32;3.50;;;7.90;74.40;;;;;;2624438;52;20926;-67
2022/01/20 09:40:52;;;;;;;5.68;3.37;;;7.90;74.30;;;;;;2377916;52;20984;-69
2022/01/20 09:43:19;;;;;;;5.50;3.45;;;7.90;74.20;;;;;;2624989;52;20938;-69
2022/01/20 09:45:49;;;;;;;10.02;4.35;;;8.00;74.30;;;;;;2372307;53;20907;-67
2022/01/20 09:48:16;;;;;;;6.47;3.80;;;8.00;74.10;;;;;;2624538;52;21061;-69
2022/01/20 09:50:43;;;;;;;7.22;4.30;;;8.00;74.20;;;;;;2372150;54;21600;-68
2022/01/20 09:53:11;;;;;;;7.45;3.87;;;8.00;74.10;;;;;;2422473;52;20986;-69
2022/01/20 09:55:37;;;;;;;6.03;3.97;;;8.00;74.10;;;;;;2475633;52;20933;-68
2022/01/20 09:58:04;;;;;;;7.62;4.10;;;8.00;73.80;;;;;;2372053;54;20950;-68
2022/01/20 10:00:30;;;;;;;6.07;3.55;;;8.00;73.80;;;;;;2371892;54;21826;-69
2022/01/20 10:03:10;;;;;;;6.68;3.67;;;8.00;73.60;;;;;;2371815;54;20982;-67
2022/01/20 10:06:11;;;;;;;6.55;4.15;;;8.00;73.60;;;;;;2371885;53;20954;-68
2022/01/20 10:08:37;;;;;;;6.10;3.15;;;8.00;73.00;;;;;;2371957;54;20945;-67
2022/01/20 10:11:09;;;;;;;7.15;4.12;;;8.00;73.60;;;;;;2361107;53;20933;-70
2022/01/20 10:13:37;;;;;;;5.72;3.58;;;8.00;73.90;;;;;;2513574;52;20945;-67
2022/01/20 10:16:09;;;;;;;5.82;3.50;;;8.00;74.00;;;;;;2371876;54;20946;-67
2022/01/20 10:18:57;;;;;;;6.35;3.97;;;8.00;74.30;;;;;;2371991;54;20941;-69
2022/01/20 10:21:27;;;;;;;7.93;3.97;;;8.00;74.00;;;;;;2336424;54;20953;-68
2022/01/20 10:24:03;;;;;;;7.12;4.10;;;8.10;74.40;;;;;;2346629;53;20994;-67
2022/01/20 10:26:30;;;;;;;7.57;3.87;;;8.10;74.30;;;;;;2350613;53;20936;-66
2022/01/20 10:29:00;;;;;;;7.45;4.28;;;8.10;74.60;;;;;;2371059;53;21802;-69
2022/01/20 10:31:49;;;;;;;6.50;3.93;;;8.10;74.50;;;;;;2375401;53;21082;-67
2022/01/20 10:34:32;;;;;;;8.45;3.60;;;8.20;75.00;;;;;;2370034;53;20986;-69
2022/01/20 10:37:08;;;;;;;5.05;3.55;;;8.20;74.30;;;;;;2374340;54;21017;-68
2022/01/20 10:39:40;;;;;;;6.87;3.58;;;8.20;74.50;;;;;;2370557;54;20937;-67
2022/01/20 10:42:08;;;;;;;9.18;3.87;;;8.20;74.20;;;;;;2372124;54;20957;-68
2022/01/20 10:44:51;;;;;;;5.87;3.20;;;8.20;74.20;;;;;;2371950;53;21009;-69
2022/01/20 10:47:28;;;;;;;5.53;3.35;;;8.30;74.00;;;;;;2371553;53;21457;-68
2022/01/20 10:50:21;;;;;;;5.97;2.97;;;8.20;73.90;;;;;;2372159;54;21084;-68
2022/01/20 10:52:47;;;;;;;5.87;3.30;;;8.30;74.10;;;;;;2394133;52;20933;-67
2022/01/20 10:56:50;;;;;;;6.25;3.40;;;8.20;73.90;;;;;;2372194;53;21041;-66
2022/01/20 10:59:17;;;;;;;5.97;3.12;;;8.30;73.20;;;;;;2432459;52;20918;-69
2022/01/20 11:01:44;;;;;;;6.65;3.12;;;8.30;74.00;;;;;;2371599;53;21253;-70
2022/01/20 11:04:12;;;;;;;6.62;3.10;;;8.30;74.00;;;;;;2372148;54;21080;-70
2022/01/20 11:06:39;;;;;;;5.75;3.47;;;8.30;74.00;;;;;;2371956;54;21883;-69
2022/01/20 11:09:08;;;;;;;5.45;3.22;;;8.30;73.80;;;;;;2371649;53;21215;-68
2022/01/20 11:11:35;;;;;;;5.95;3.35;;;8.30;73.80;;;;;;2371776;53;21337;-67
2022/01/20 11:14:01;;;;;;;6.95;3.30;;;8.30;73.90;;;;;;2372173;54;20962;-69
2022/01/20 11:16:28;;;;;;;5.82;3.10;;;8.30;73.80;;;;;;2372129;53;20981;-68
2022/01/20 11:18:54;;;;;;;5.70;3.35;;;8.30;73.80;;;;;;2624479;52;21681;-67
2022/01/20 11:21:27;;;;;;;6.65;3.00;;;8.30;73.90;;;;;;2370327;53;20954;-67
2022/01/20 11:23:53;;;;;;;;;;;8.30;73.70;;;;;;2375208;54;20929;-70
2022/01/20 11:26:21;;;;;;;6.10;2.70;;;8.30;72.90;;;;;;2371751;54;20078;-67
2022/01/20 11:28:58;;;;;;;6.72;3.50;;;8.30;73.80;;;;;;2371673;54;20986;-68
2022/01/20 11:31:30;;;;;;;7.25;3.50;;;8.30;73.40;;;;;;2371246;53;20945;-67
2022/01/20 11:33:56;;;;;;;6.70;3.30;;;8.30;73.30;;;;;;2371607;53;20990;-67
2022/01/20 11:36:27;;;;;;;7.20;3.58;;;8.30;73.60;;;;;;2372076;53;21423;-69
2022/01/20 11:39:07;;;;;;;7.32;3.28;;;8.30;73.40;;;;;;2375565;54;20949;-70
2022/01/20 11:41:46;;;;;;;7.32;3.55;;;8.30;73.40;;;;;;2377954;52;20989;-68
2022/01/20 11:44:26;;;;;;;6.68;3.30;;;8.30;73.40;;;;;;2371789;53;20965;-69
2022/01/20 11:46:53;;;;;;;5.50;2.92;;;8.30;73.30;;;;;;2370834;54;21478;-66
2022/01/20 11:49:20;;;;;;;9.02;3.58;;;8.30;73.60;;;;;;2374092;52;20994;-69
2022/01/20 11:51:48;;;;;;;7.45;4.05;;;8.30;73.60;;;;;;2371789;53;20921;-67
2022/01/20 11:54:41;;;;;;;6.93;3.70;;;8.30;73.60;;;;;;2371668;54;21013;-68
2022/01/20 11:57:14;;;;;;;8.15;3.90;;;8.30;73.50;;;;;;2351916;54;20965;-68
2022/01/20 12:00:14;;;;;;;11.12;5.12;;;8.30;73.60;;;;;;2375228;54;21116;-70
2022/01/20 12:02:41;;;;;;;9.00;4.00;;;8.30;73.30;;;;;;2351837;54;20966;-68
2022/01/20 12:05:27;;;;;;;10.35;4.68;;;8.30;73.70;;;;;;2474444;52;21140;-68
2022/01/20 12:08:14;;;;;;;9.63;4.97;;;8.30;73.40;;;;;;2393901;52;21812;-67
2022/01/20 12:10:43;;;;;;;7.70;3.70;;;8.30;73.30;;;;;;2352044;54;21013;-69
2022/01/20 12:13:13;;;;;;;7.07;3.65;;;8.30;73.50;;;;;;2408971;53;20940;-69
2022/01/20 12:15:53;;;;;;;5.47;3.00;;;8.30;73.40;;;;;;2317688;54;21004;-68
2022/01/20 12:18:20;;;;;;;7.35;3.40;;;8.30;73.10;;;;;;2338006;53;21024;-70
2022/01/20 12:20:46;;;;;;;5.65;3.22;;;8.20;73.20;;;;;;2370894;53;20989;-69
2022/01/20 12:23:14;;;;;;;6.80;3.55;;;8.20;73.30;;;;;;2348990;54;21350;-71
2022/01/20 12:25:41;;;;;;;8.52;4.82;;;8.20;73.20;;;;;;2357898;54;20945;-69
2022/01/20 12:28:15;;;;;;;7.10;3.83;;;8.20;73.40;;;;;;2353317;54;21300;-67
2022/01/20 12:30:48;;;;;;;7.85;4.72;;;8.20;73.50;;;;;;2448955;52;21041;-66
2022/01/20 12:33:17;;;;;;;6.15;3.72;;;8.20;73.50;;;;;;2365820;54;20958;-67
2022/01/20 12:35:48;;;;;;;6.78;3.90;;;8.20;73.80;;;;;;2366717;54;20953;-70
2022/01/20 12:38:25;;;;;;;8.15;4.10;;;8.20;73.90;;;;;;2369299;54;21034;-67
2022/01/20 12:41:17;;;;;;;6.62;3.30;;;8.20;74.10;;;;;;2356198;54;20948;-67
2022/01/20 12:43:53;;;;;;;7.00;3.75;;;8.30;74.00;;;;;;2360313;54;20953;-65
2022/01/20 12:46:21;;;;;;;8.38;3.35;;;8.30;74.10;;;;;;2365609;54;20978;-68
2022/01/20 12:50:48;;;;;;;7.68;3.05;;;8.30;74.30;;;;;;2367004;54;20974;-67
2022/01/20 12:53:17;;;;;;;4.78;2.40;;;8.30;73.50;;;;;;2366497;54;21379;-67
2022/01/20 12:55:52;;;;;;;8.05;3.15;;;8.30;74.00;;;;;;2366537;54;21544;-67
2022/01/20 12:58:19;;;;;;;6.03;2.75;;;8.40;73.80;;;;;;2333048;54;21017;-67
2022/01/20 13:00:55;;;;;;;6.10;2.60;;;8.30;73.90;;;;;;2332510;54;20965;-66
2022/01/20 13:03:31;;;;;;;6.62;3.20;;;8.40;74.00;;;;;;2333338;53;21014;-69
2022/01/20 13:05:59;;;;;;;7.12;3.08;;;8.40;74.00;;;;;;2351967;54;21374;-71
2022/01/20 13:08:31;;;;;;;9.88;4.37;;;8.40;74.00;;;;;;2338405;54;20928;-67
2022/01/20 13:11:14;;;;;;;11.77;4.85;;;8.40;74.00;;;;;;2338921;53;21000;-70
2022/01/20 13:13:50;;;;;;;12.30;4.72;;;8.40;73.90;;;;;;2339000;55;20944;-71
2022/01/20 13:16:18;;;;;;;14.27;5.43;;;8.40;74.00;;;;;;2339619;53;20961;-69
2022/01/20 13:18:55;;;;;;;15.90;7.22;;;8.40;74.00;;;;;;2445135;53;20924;-69
2022/01/20 13:21:31;;;;;;;10.60;5.37;;;8.40;73.70;;;;;;2338240;54;20929;-67
2022/01/20 13:23:58;;;;;;;17.95;7.90;;;8.40;74.00;;;;;;2339178;54;20934;-68
2022/01/20 13:26:25;;;;;;;13.45;6.22;;;8.40;73.90;;;;;;2338797;53;20974;-69
2022/01/20 13:29:01;;;;;;;11.50;5.20;;;8.40;73.90;;;;;;2343676;53;20968;-70
2022/01/20 13:31:33;;;;;;;10.82;4.10;;;8.40;73.60;;;;;;2351002;54;21015;-67
2022/01/20 13:34:06;;;;;;;7.28;3.62;;;8.40;73.90;;;;;;2353797;54;20985;-70
2022/01/20 13:36:37;;;;;;;6.30;3.40;;;8.40;73.70;;;;;;2371418;53;20910;-67
2022/01/20 13:39:04;;;;;;;7.97;3.08;;;8.40;73.80;;;;;;2371420;53;20929;-69
2022/01/20 13:41:30;;;;;;;7.80;3.75;;;8.40;73.90;;;;;;2371426;54;20901;-69
2022/01/20 13:46:46;;;;;;;8.23;2.70;;;8.40;73.60;;;;;;2371290;54;20984;-67
2022/01/20 13:49:15;;;;;;;6.95;2.40;;;8.50;73.40;;;;;;2371348;54;21469;-68
2022/01/20 13:51:41;;;;;;;4.50;2.08;;;8.40;73.20;;;;;;2371418;54;20893;-71
2022/01/20 13:54:08;;;;;;;4.78;2.15;;;8.40;73.10;;;;;;2442892;52;20968;-70
2022/01/20 13:56:34;;;;;;;5.03;2.20;;;8.40;72.90;;;;;;2532231;52;21873;-66
2022/01/20 13:59:08;;;;;;;6.55;2.20;;;8.40;72.90;;;;;;2371383;54;20917;-69
2022/01/20 14:01:45;;;;;;;5.40;1.92;;;8.30;72.90;;;;;;2371315;53;20889;-67
2022/01/20 14:04:13;;;;;;;5.45;2.00;;;8.30;73.10;;;;;;2489941;52;20965;-66
2022/01/20 14:06:39;;;;;;;5.40;1.92;;;8.30;73.20;;;;;;2371338;54;20933;-66
2022/01/20 14:09:06;;;;;;;6.57;2.00;;;8.30;73.30;;;;;;2371447;53;20921;-67
2022/01/20 14:11:32;;;;;;;4.57;1.80;;;8.30;73.30;;;;;;2371018;53;20920;-69
2022/01/20 14:13:59;;;;;;;5.47;1.80;;;8.30;73.40;;;;;;2371406;54;20921;-67
2022/01/20 14:16:29;;;;;;;5.95;2.00;;;8.30;73.50;;;;;;2390557;52;20921;-68
2022/01/20 14:18:58;;;;;;;4.55;1.87;;;8.30;73.40;;;;;;2371217;53;21457;-69